Station History

Weather Underground - logo

Station Historical Data
Daily Summary for October 13, 2017 Units:  Metric    English   Both
« Previous Day
Next Day »
Daily Weekly Monthly Yearly Custom
  High: Low: Average:
Temperature: 24 °C 6.4 °C 14.4 °C
Dew Point: 8.5 °C 3.8 °C 5.9 °C
Humidity: 87 % 28 % 61 %
Wind Speed: 5.6 km/h 0 km/h 0.6 km/h
Wind Gust: 5.6 km/h - -
Wind:- - SW
Pressure: 1019.9 hPa 1016.1 hPa -
Precipitation: 0 mm    
Historical Graphs
 
 
Tabular Data for October 13, 2017
Time Temperature Dew Point Pressure Wind Wind Speed Wind Gust Humidity Rainfall Rate (Hourly)
00:01 10.3 °C 6.3 °C 1017.5 hPa Calm     76 % 0 mm
00:06 10.1 °C 6.4 °C 1017.5 hPa Calm     78 % 0 mm
00:11 10 °C 6.3 °C 1017.5 hPa Calm     78 % 0 mm
00:16 9.8 °C 6.2 °C 1017.5 hPa Calm     78 % 0 mm
00:21 9.6 °C 6.2 °C 1017.5 hPa Calm     79 % 0 mm
00:26 9.3 °C 5.9 °C 1017.5 hPa Calm     79 % 0 mm
00:31 8.9 °C 5.7 °C 1017.5 hPa Calm     80 % 0 mm
00:36 8.8 °C 5.7 °C 1017.5 hPa Calm     81 % 0 mm
00:41 8.7 °C 5.7 °C 1017.5 hPa Calm     81 % 0 mm
00:46 8.7 °C 5.7 °C 1017.5 hPa Calm     81 % 0 mm
00:51 8.7 °C 5.4 °C 1017.5 hPa Calm     80 % 0 mm
00:56 8.8 °C 5.6 °C 1017.8 hPa Calm     80 % 0 mm
01:01 8.9 °C 5.5 °C 1017.5 hPa Calm     79 % 0 mm
01:06 9 °C 5.6 °C 1017.8 hPa Calm     79 % 0 mm
01:11 9.1 °C 5.8 °C 1017.8 hPa Calm     80 % 0 mm
01:16 8.9 °C 5.7 °C 1017.8 hPa Calm     80 % 0 mm
01:22 8.7 °C 5.4 °C 1017.8 hPa Calm     80 % 0 mm
01:27 8.4 °C 5.2 °C 1017.8 hPa Calm     80 % 0 mm
01:32 8.2 °C 5.2 °C 1017.8 hPa Calm     81 % 0 mm
01:37 8.1 °C 5.1 °C 1017.8 hPa Calm     81 % 0 mm
01:42 8.1 °C 5.2 °C 1017.8 hPa Calm     82 % 0 mm
01:47 8 °C 5.1 °C 1017.8 hPa Calm     82 % 0 mm
01:52 7.9 °C 5.4 °C 1017.8 hPa Calm     84 % 0 mm
01:57 8 °C 5.4 °C 1017.8 hPa Calm     84 % 0 mm
02:02 8.1 °C 5.5 °C 1017.8 hPa Calm     84 % 0 mm
02:07 8.1 °C 5.5 °C 1018.2 hPa Calm     84 % 0 mm
02:12 8 °C 5.4 °C 1018.2 hPa Calm     84 % 0 mm
02:17 8 °C 5.4 °C 1018.2 hPa Calm     84 % 0 mm
02:22 8.1 °C 5.7 °C 1018.2 hPa Calm     85 % 0 mm
02:27 8 °C 5.4 °C 1018.2 hPa Calm     84 % 0 mm
02:32 7.9 °C 5.3 °C 1018.2 hPa Calm     84 % 0 mm
02:37 7.8 °C 5.2 °C 1018.2 hPa Calm     84 % 0 mm
02:42 7.7 °C 5.3 °C 1018.2 hPa Calm     85 % 0 mm
02:47 7.8 °C 5.4 °C 1018.2 hPa Calm     85 % 0 mm
02:52 7.8 °C 5.6 °C 1018.2 hPa Calm     86 % 0 mm
02:57 7.9 °C 5.6 °C 1018.2 hPa Calm     85 % 0 mm
03:02 8 °C 5.6 °C 1018.2 hPa Calm     85 % 0 mm
03:07 8.1 °C 5.7 °C 1018.2 hPa Calm     85 % 0 mm
03:12 8.1 °C 5.3 °C 1018.2 hPa Calm     83 % 0 mm
03:17 8.1 °C 5.3 °C 1018.2 hPa Calm     83 % 0 mm
03:22 8.1 °C 5.3 °C 1018.2 hPa Calm     83 % 0 mm
03:27 8.1 °C 5.2 °C 1018.2 hPa Calm     82 % 0 mm
03:32 8 °C 5.1 °C 1017.8 hPa Calm     82 % 0 mm
03:37 8.2 °C 5.1 °C 1017.8 hPa Calm     81 % 0 mm
03:42 8.2 °C 5 °C 1017.8 hPa Calm     80 % 0 mm
03:47 8.2 °C 5.1 °C 1017.8 hPa Calm     81 % 0 mm
03:52 8.2 °C 5.2 °C 1017.8 hPa Calm     81 % 0 mm
03:57 8.2 °C 5.2 °C 1017.8 hPa Calm     81 % 0 mm
04:02 8.1 °C 5.1 °C 1017.8 hPa Calm     81 % 0 mm
04:07 7.9 °C 5 °C 1017.8 hPa Calm     82 % 0 mm
04:12 7.9 °C 5.1 °C 1017.8 hPa Calm     82 % 0 mm
04:17 8.1 °C 5 °C 1017.8 hPa Calm     81 % 0 mm
04:22 8.2 °C 5.1 °C 1017.8 hPa Calm     81 % 0 mm
04:27 8.3 °C 4.8 °C 1017.8 hPa Calm   0.2 km/h 79 % 0 mm
04:32 8.4 °C 4.8 °C 1017.8 hPa Calm     78 % 0 mm
04:37 8.4 °C 4.8 °C 1017.8 hPa Calm     78 % 0 mm
04:43 8.5 °C 4.7 °C 1017.8 hPa Calm     77 % 0 mm
04:48 8.3 °C 4.6 °C 1018.2 hPa Calm     77 % 0 mm
04:53 8.4 °C 4.4 °C 1018.2 hPa Calm     76 % 0 mm
04:58 8.2 °C 4.2 °C 1018.2 hPa Calm     76 % 0 mm
05:03 7.6 °C 3.8 °C 1018.2 hPa Calm     77 % 0 mm
05:08 7.2 °C 3.8 °C 1018.2 hPa Calm     79 % 0 mm
05:13 7 °C 3.9 °C 1018.2 hPa Calm     81 % 0 mm
05:18 6.9 °C 4.3 °C 1018.2 hPa Calm     83 % 0 mm
05:23 6.9 °C 4.8 °C 1018.2 hPa Calm     86 % 0 mm
05:28 6.7 °C 4.2 °C 1018.2 hPa Calm     84 % 0 mm
05:33 6.6 °C 4.1 °C 1018.2 hPa Calm     84 % 0 mm
05:38 6.5 °C 4 °C 1018.2 hPa Calm     84 % 0 mm
05:39 6.4 °C 3.9 °C 1018.2 hPa Calm     84 % 0 mm
05:44 6.4 °C 4.3 °C 1018.2 hPa Calm     86 % 0 mm
05:49 6.5 °C 4.5 °C 1018.5 hPa Calm     87 % 0 mm
05:54 6.5 °C 4.3 °C 1018.5 hPa Calm     86 % 0 mm
05:59 6.5 °C 4.5 °C 1018.5 hPa Calm     87 % 0 mm
06:04 6.6 °C 4.4 °C 1018.5 hPa Calm     86 % 0 mm
06:09 6.7 °C 4.5 °C 1018.5 hPa Calm     86 % 0 mm
06:14 6.7 °C 4.3 °C 1018.5 hPa Calm     85 % 0 mm
06:19 6.7 °C 4.3 °C 1018.5 hPa Calm     85 % 0 mm
06:24 6.7 °C 4.3 °C 1018.8 hPa Calm     85 % 0 mm
06:29 6.7 °C 4.5 °C 1018.8 hPa Calm     86 % 0 mm
06:34 6.7 °C 4.6 °C 1018.8 hPa Calm     86 % 0 mm
06:39 6.7 °C 4.5 °C 1018.5 hPa Calm     86 % 0 mm
06:44 6.6 °C 4.4 °C 1018.8 hPa Calm     86 % 0 mm
06:49 6.7 °C 4.7 °C 1018.8 hPa Calm     87 % 0 mm
06:54 6.7 °C 4.6 °C 1018.8 hPa Calm     86 % 0 mm
06:59 6.7 °C 4.3 °C 1018.8 hPa Calm     85 % 0 mm
07:04 6.9 °C 4.2 °C 1018.8 hPa Calm     83 % 0 mm
07:09 6.9 °C 4.3 °C 1018.8 hPa Calm     83 % 0 mm
07:14 7.1 °C 4.4 °C 1018.8 hPa Calm     83 % 0 mm
07:19 7.1 °C 4.4 °C 1018.8 hPa Calm     83 % 0 mm
07:24 6.9 °C 4.3 °C 1018.8 hPa Calm     83 % 0 mm
07:30 6.8 °C 4.2 °C 1018.8 hPa Calm     83 % 0 mm
07:35 6.7 °C 4.2 °C 1018.8 hPa Calm     84 % 0 mm
07:40 6.8 °C 4.4 °C 1019.2 hPa Calm     85 % 0 mm
07:45 7 °C 4.7 °C 1019.2 hPa Calm     85 % 0 mm
07:50 7.1 °C 4.6 °C 1019.2 hPa Calm     84 % 0 mm
07:55 7.4 °C 4.4 °C 1019.2 hPa Calm     81 % 0 mm
08:00 7.7 °C 4.6 °C 1019.2 hPa Calm     81 % 0 mm
08:05 7.9 °C 4.9 °C 1019.2 hPa Calm     81 % 0 mm
08:10 8.3 °C 5.2 °C 1019.2 hPa Calm     81 % 0 mm
08:15 8.7 °C 5.8 °C 1019.2 hPa Calm     82 % 0 mm
08:20 9.2 °C 6.3 °C 1019.2 hPa Calm     82 % 0 mm
08:25 9.8 °C 6.2 °C 1019.2 hPa Calm     78 % 0 mm
08:30 10.9 °C 7 °C 1019.2 hPa Calm     77 % 0 mm
08:35 11.7 °C 7.4 °C 1019.2 hPa Calm     75 % 0 mm
08:40 12.4 °C 7.1 °C 1019.2 hPa Calm     70 % 0 mm
08:42 12.7 °C 7.1 °C 1019.2 hPa Calm     69 % 0 mm
08:47 12.9 °C 6.3 °C 1019.5 hPa Calm     64 % 0 mm
08:52 13.2 °C 6.3 °C 1019.5 hPa Calm     63 % 0 mm
08:53 13.3 °C 6.4 °C 1019.5 hPa Calm     63 % 0 mm
08:58 13.8 °C 6.4 °C 1019.5 hPa Calm     61 % 0 mm
09:03 13.4 °C 5.6 °C 1019.5 hPa Calm     59 % 0 mm
09:04 13.4 °C 5.8 °C 1019.5 hPa Calm   0.2 km/h 60 % 0 mm
09:09 13.5 °C 6.3 °C 1019.5 hPa Calm     62 % 0 mm
09:14 14 °C 6.6 °C 1019.5 hPa Calm     61 % 0 mm
09:19 14.4 °C 6.8 °C 1019.9 hPa NNW 1.9 km/h 1.9 km/h 60 % 0 mm
09:24 14.4 °C 6.8 °C 1019.9 hPa NNW 1.9 km/h 1.9 km/h 60 % 0 mm
09:29 14.2 °C 6.8 °C 1019.9 hPa WNW 1.9 km/h   61 % 0 mm
09:34 14.3 °C 7.6 °C 1019.9 hPa Calm     64 % 0 mm
09:39 14.9 °C 6.7 °C 1019.9 hPa North 1.9 km/h   58 % 0 mm
09:44 15.2 °C 7.2 °C 1019.9 hPa Calm     59 % 0 mm
09:49 15.6 °C 6.3 °C 1019.9 hPa SSE 1.9 km/h   54 % 0 mm
09:54 16 °C 6.2 °C 1019.9 hPa Calm     52 % 0 mm
09:59 16.3 °C 6.2 °C 1019.9 hPa Calm   0.3 km/h 51 % 0 mm
10:04 16.6 °C 5.2 °C 1019.9 hPa NW 1.9 km/h   47 % 0 mm
10:09 16.7 °C 5.3 °C 1019.9 hPa Calm   0.5 km/h 47 % 0 mm
10:14 17.1 °C 5.4 °C 1019.9 hPa SE 1.9 km/h 1.9 km/h 46 % 0 mm
10:19 17.6 °C 5.2 °C 1019.9 hPa SE 1.9 km/h   44 % 0 mm
10:24 17.8 °C 5.7 °C 1019.9 hPa Calm   0.2 km/h 45 % 0 mm
10:30 18.1 °C 4.9 °C 1019.9 hPa North 1.9 km/h 1.9 km/h 42 % 0 mm
10:35 18.1 °C 4.7 °C 1019.9 hPa SE 3.7 km/h   41 % 0 mm
10:40 18.4 °C 5.2 °C 1019.9 hPa Calm   0.8 km/h 42 % 0 mm
10:45 18.6 °C 4.7 °C 1019.9 hPa NW 1.9 km/h   40 % 0 mm
10:50 18.8 °C 5.6 °C 1019.9 hPa ESE 4.8 km/h 4.8 km/h 42 % 0 mm
10:55 19 °C 5.8 °C 1019.9 hPa Calm     42 % 0 mm
11:00 19.4 °C 5.8 °C 1019.9 hPa NW 1.9 km/h 1.9 km/h 41 % 0 mm
11:05 19.4 °C 5.1 °C 1019.9 hPa NNW 1.9 km/h 1.9 km/h 39 % 0 mm
11:10 19.6 °C 5.3 °C 1019.9 hPa WSW 1.9 km/h   39 % 0 mm
11:15 19.9 °C 5.2 °C 1019.9 hPa Calm     38 % 0 mm
11:20 20.1 °C 5.3 °C 1019.5 hPa SSE 3.7 km/h 3.7 km/h 38 % 0 mm
11:25 20.3 °C 5.5 °C 1019.5 hPa ESE 3.7 km/h 3.7 km/h 38 % 0 mm
11:30 20.2 °C 5 °C 1019.5 hPa SSE 5.6 km/h 5.6 km/h 37 % 0 mm
11:35 20.4 °C 4.8 °C 1019.5 hPa NNW 1.9 km/h 1.9 km/h 36 % 0 mm
11:40 20.4 °C 4 °C 1019.5 hPa NW 1.9 km/h   34 % 0 mm
11:45 20.6 °C 4.9 °C 1019.5 hPa SSW 3.7 km/h 3.7 km/h 36 % 0 mm
11:50 20.8 °C 5.2 °C 1019.5 hPa SSW 3.7 km/h 3.7 km/h 36 % 0 mm
11:55 21.2 °C 5.6 °C 1019.5 hPa NNE 1.9 km/h 1.9 km/h 36 % 0 mm
12:00 21.4 °C 5.3 °C 1019.5 hPa WNW 1.9 km/h 1.9 km/h 35 % 0 mm
12:05 21.4 °C 4.9 °C 1019.5 hPa NW 3.7 km/h 3.7 km/h 34 % 0 mm
12:10 21.5 °C 4.9 °C 1019.2 hPa North 1.9 km/h 1.9 km/h 34 % 0 mm
12:15 21.5 °C 5.4 °C 1019.2 hPa ESE 3.2 km/h 3.2 km/h 35 % 0 mm
12:20 21.7 °C 4.7 °C 1019.2 hPa North 3.7 km/h 3.7 km/h 33 % 0 mm
12:25 21.5 °C 4.6 °C 1019.2 hPa North 1.9 km/h 1.9 km/h 33 % 0 mm
12:30 21.6 °C 4.6 °C 1018.8 hPa NNW 3.7 km/h 3.7 km/h 33 % 0 mm
12:35 21.7 °C 5.1 °C 1018.8 hPa WNW 1.9 km/h 1.9 km/h 34 % 0 mm
12:40 21.9 °C 5.8 °C 1018.8 hPa NW 1.9 km/h 1.9 km/h 35 % 0 mm
12:45 22.3 °C 6.1 °C 1018.5 hPa East 5.6 km/h 5.6 km/h 35 % 0 mm
12:50 22.6 °C 5.9 °C 1018.5 hPa South 5.6 km/h   34 % 0 mm
12:55 22.8 °C 6.2 °C 1018.5 hPa NNW 3.7 km/h 3.7 km/h 34 % 0 mm
13:00 22.8 °C 5.3 °C 1018.5 hPa NNW 3.7 km/h 3.7 km/h 32 % 0 mm
13:05 22.7 °C 6 °C 1018.5 hPa North 3.7 km/h 3.7 km/h 34 % 0 mm
13:10 22.9 °C 6.2 °C 1018.2 hPa NNW 3.7 km/h   34 % 0 mm
13:15 23.1 °C 5.4 °C 1018.2 hPa South 1.9 km/h   32 % 0 mm
13:21 22.8 °C 5.3 °C 1018.2 hPa NNW 3.7 km/h 3.7 km/h 32 % 0 mm
13:26 22.8 °C 5.7 °C 1017.8 hPa NE 3.7 km/h 3.7 km/h 33 % 0 mm
13:31 23.1 °C 5.9 °C 1017.8 hPa WNW 3.7 km/h 3.7 km/h 33 % 0 mm
13:36 22.8 °C 5.7 °C 1017.8 hPa West 5.6 km/h 5.6 km/h 33 % 0 mm
13:41 22.8 °C 5.7 °C 1017.8 hPa WSW 3.7 km/h 3.7 km/h 33 % 0 mm
13:46 22.9 °C 4.9 °C 1017.8 hPa NW 1.9 km/h 1.9 km/h 31 % 0 mm
13:51 23 °C 5.8 °C 1017.5 hPa SE 3.7 km/h 3.7 km/h 33 % 0 mm
13:56 23 °C 5.8 °C 1017.5 hPa West 1.9 km/h 1.9 km/h 33 % 0 mm
14:01 22.9 °C 4.9 °C 1017.5 hPa NNW 3.7 km/h 3.7 km/h 31 % 0 mm
14:06 22.9 °C 6.7 °C 1017.5 hPa WNW 1.9 km/h 1.9 km/h 35 % 0 mm
14:11 23 °C 4.9 °C 1017.5 hPa West 1.9 km/h 1.9 km/h 31 % 0 mm
14:16 23.2 °C 4.7 °C 1017.2 hPa ENE 1.9 km/h 1.9 km/h 30 % 0 mm
14:21 23.2 °C 5.6 °C 1017.2 hPa WNW 3.7 km/h 3.7 km/h 32 % 0 mm
14:26 23.4 °C 5.3 °C 1017.2 hPa North 1.9 km/h 1.9 km/h 31 % 0 mm
14:31 23.6 °C 5.9 °C 1017.2 hPa Calm     32 % 0 mm
14:36 23.9 °C 6.2 °C 1016.8 hPa WNW 1.9 km/h   32 % 0 mm
14:41 24 °C 5.3 °C 1016.8 hPa NW 3.7 km/h 3.7 km/h 30 % 0 mm
14:46 23.6 °C 5 °C 1016.8 hPa NW 3.7 km/h 3.7 km/h 30 % 0 mm
14:51 23.3 °C 4.8 °C 1016.8 hPa WNW 3.7 km/h 3.7 km/h 30 % 0 mm
14:56 23.3 °C 4.8 °C 1016.8 hPa NW 3.7 km/h 3.7 km/h 30 % 0 mm
15:01 23.3 °C 5.2 °C 1016.8 hPa WNW 1.9 km/h   31 % 0 mm
15:06 23.3 °C 5.2 °C 1016.8 hPa NW 1.6 km/h 1.6 km/h 31 % 0 mm
15:11 23.7 °C 5.6 °C 1016.8 hPa Calm     31 % 0 mm
15:16 23.7 °C 4.6 °C 1016.8 hPa NW 1.9 km/h 1.9 km/h 29 % 0 mm
15:21 23.6 °C 5 °C 1016.5 hPa Calm   0.3 km/h 30 % 0 mm
15:26 23.7 °C 5.6 °C 1016.5 hPa NW 4.8 km/h 4.8 km/h 31 % 0 mm
15:31 23.4 °C 4.4 °C 1016.5 hPa WNW 5.6 km/h 5.6 km/h 29 % 0 mm
15:36 23.3 °C 4.2 °C 1016.5 hPa Calm     29 % 0 mm
15:41 23.3 °C 3.8 °C 1016.5 hPa Calm     28 % 0 mm
15:46 23.4 °C 4.4 °C 1016.5 hPa NNE 1.9 km/h 1.9 km/h 29 % 0 mm
15:51 23.6 °C 5 °C 1016.5 hPa South 1.9 km/h 1.9 km/h 30 % 0 mm
15:56 23.7 °C 6.1 °C 1016.5 hPa Calm     32 % 0 mm
16:01 23.7 °C 5.6 °C 1016.5 hPa West 1.9 km/h   31 % 0 mm
16:06 23.7 °C 5.1 °C 1016.5 hPa WNW 1.9 km/h   30 % 0 mm
16:11 23.6 °C 5.5 °C 1016.5 hPa East 1.9 km/h 1.9 km/h 31 % 0 mm
16:16 23.4 °C 5.8 °C 1016.5 hPa North 1.9 km/h 1.9 km/h 32 % 0 mm
16:21 23.3 °C 5.7 °C 1016.5 hPa WSW 1.9 km/h   32 % 0 mm
16:26 23.3 °C 5.2 °C 1016.5 hPa Calm     31 % 0 mm
16:31 23.1 °C 5.5 °C 1016.5 hPa NW 1.6 km/h 1.6 km/h 32 % 0 mm
16:36 23 °C 4.5 °C 1016.1 hPa NNW 1.9 km/h   30 % 0 mm
16:41 22.8 °C 5.3 °C 1016.5 hPa Calm   0.5 km/h 32 % 0 mm
16:46 22.7 °C 4.7 °C 1016.5 hPa Calm     31 % 0 mm
16:51 22.7 °C 4.7 °C 1016.1 hPa Calm     31 % 0 mm
16:56 22.7 °C 5.1 °C 1016.1 hPa SE 3.2 km/h 3.2 km/h 32 % 0 mm
17:01 22.6 °C 5 °C 1016.1 hPa Calm     32 % 0 mm
17:06 22.4 °C 5.8 °C 1016.1 hPa Calm     34 % 0 mm
17:11 22.3 °C 5.3 °C 1016.1 hPa Calm     33 % 0 mm
17:16 22.3 °C 5.2 °C 1016.1 hPa Calm     33 % 0 mm
17:21 22.2 °C 6 °C 1016.1 hPa Calm     35 % 0 mm
17:26 22 °C 5.8 °C 1016.1 hPa Calm     35 % 0 mm
17:32 21.8 °C 6.1 °C 1016.1 hPa Calm     36 % 0 mm
17:37 21.7 °C 6.7 °C 1016.1 hPa Calm     38 % 0 mm
17:42 21.5 °C 6.6 °C 1016.1 hPa Calm     38 % 0 mm
17:47 21.2 °C 6.7 °C 1016.1 hPa Calm     39 % 0 mm
17:52 20.9 °C 6.8 °C 1016.1 hPa Calm     40 % 0 mm
17:57 20.6 °C 7.2 °C 1016.1 hPa Calm     42 % 0 mm
18:02 20.2 °C 6.9 °C 1016.1 hPa Calm     42 % 0 mm
18:07 19.9 °C 7.3 °C 1016.1 hPa Calm     44 % 0 mm
18:12 19.6 °C 8 °C 1016.1 hPa Calm     47 % 0 mm
18:16 19.2 °C 7.9 °C 1016.1 hPa Calm     48 % 0 mm
18:22 18.9 °C 8.2 °C 1016.1 hPa Calm     50 % 0 mm
18:27 18.5 °C 8.2 °C 1016.1 hPa Calm     51 % 0 mm
18:31 18.1 °C 8.4 °C 1016.1 hPa Calm     53 % 0 mm
18:37 17.8 °C 8.3 °C 1016.1 hPa Calm     54 % 0 mm
18:42 17.5 °C 7.8 °C 1016.1 hPa Calm     53 % 0 mm
18:47 17.2 °C 7.8 °C 1016.1 hPa Calm     54 % 0 mm
18:52 17 °C 8.4 °C 1016.5 hPa Calm     57 % 0 mm
18:57 16.9 °C 8.1 °C 1016.1 hPa Calm     56 % 0 mm
19:02 16.7 °C 8.1 °C 1016.5 hPa Calm     57 % 0 mm
19:07 16.5 °C 8.4 °C 1016.5 hPa Calm     59 % 0 mm
19:12 16.3 °C 8 °C 1016.5 hPa Calm     58 % 0 mm
19:17 16.1 °C 8.1 °C 1016.5 hPa Calm     59 % 0 mm
19:22 15.9 °C 8.1 °C 1016.5 hPa Calm     60 % 0 mm
19:27 15.9 °C 8.4 °C 1016.8 hPa Calm     61 % 0 mm
19:32 15.7 °C 8 °C 1016.8 hPa Calm     60 % 0 mm
19:37 15.5 °C 8 °C 1016.8 hPa Calm     61 % 0 mm
19:42 15.4 °C 8.2 °C 1016.8 hPa Calm     62 % 0 mm
19:47 15.4 °C 8.2 °C 1016.8 hPa Calm     62 % 0 mm
19:52 15.3 °C 8.3 °C 1016.8 hPa Calm     63 % 0 mm
19:57 15 °C 8.4 °C 1016.8 hPa Calm     65 % 0 mm
20:02 14.8 °C 8.5 °C 1017.2 hPa Calm     66 % 0 mm
20:07 14.6 °C 8.3 °C 1017.2 hPa Calm     66 % 0 mm
20:12 14.4 °C 7.7 °C 1017.2 hPa Calm     64 % 0 mm
20:17 14.3 °C 8.1 °C 1017.2 hPa Calm     66 % 0 mm
20:22 14.2 °C 7.7 °C 1017.2 hPa Calm     65 % 0 mm
20:27 14.1 °C 7.6 °C 1017.2 hPa Calm     65 % 0 mm
20:32 14.1 °C 7.6 °C 1017.2 hPa Calm     65 % 0 mm
20:37 14 °C 7.3 °C 1017.2 hPa Calm     64 % 0 mm
20:42 13.9 °C 7.7 °C 1017.2 hPa Calm     66 % 0 mm
20:47 13.8 °C 8.2 °C 1017.5 hPa Calm     69 % 0 mm
20:52 13.7 °C 8.3 °C 1017.5 hPa Calm     70 % 0 mm
20:57 13.6 °C 8 °C 1017.5 hPa Calm     69 % 0 mm
21:02 13.4 °C 7.7 °C 1017.5 hPa Calm     68 % 0 mm
21:07 13.3 °C 7.8 °C 1017.5 hPa Calm     69 % 0 mm
21:08 13.3 °C 7.8 °C 1017.5 hPa Calm     69 % 0 mm
21:13 13.2 °C 7.8 °C 1017.5 hPa Calm     70 % 0 mm
21:18 13.1 °C 7.9 °C 1017.5 hPa Calm     71 % 0 mm
21:23 12.9 °C 8.2 °C 1017.5 hPa Calm     73 % 0 mm
21:28 12.7 °C 8 °C 1017.5 hPa Calm     73 % 0 mm
21:33 12.5 °C 7.8 °C 1017.8 hPa Calm     73 % 0 mm
21:38 12.3 °C 7.8 °C 1017.5 hPa Calm     74 % 0 mm
21:43 12.2 °C 7.7 °C 1017.8 hPa Calm     74 % 0 mm
21:48 12.2 °C 7.9 °C 1017.8 hPa Calm     75 % 0 mm
21:53 12.1 °C 8 °C 1017.8 hPa Calm     76 % 0 mm
21:55 12.1 °C 8 °C 1017.8 hPa Calm     76 % 0 mm
22:00 12.1 °C 8 °C 1017.8 hPa Calm     76 % 0 mm
22:05 12 °C 8.1 °C 1018.2 hPa Calm     77 % 0 mm
22:10 11.9 °C 8 °C 1018.2 hPa Calm     77 % 0 mm
22:15 11.8 °C 8.1 °C 1018.2 hPa Calm     78 % 0 mm
22:20 11.6 °C 7.8 °C 1018.2 hPa Calm     78 % 0 mm
22:25 11.4 °C 7.9 °C 1018.2 hPa Calm     79 % 0 mm
22:30 11.4 °C 7.9 °C 1018.2 hPa Calm     79 % 0 mm
22:35 11.6 °C 7.9 °C 1018.2 hPa Calm     78 % 0 mm
22:40 11.8 °C 7.9 °C 1018.2 hPa Calm     77 % 0 mm
22:46 11.9 °C 7.8 °C 1018.2 hPa Calm     76 % 0 mm
22:51 11.9 °C 7.4 °C 1018.2 hPa Calm     74 % 0 mm
22:56 11.8 °C 7.5 °C 1018.2 hPa Calm     75 % 0 mm
23:01 11.7 °C 7.4 °C 1018.2 hPa Calm     75 % 0 mm
23:06 11.5 °C 7 °C 1018.2 hPa Calm     74 % 0 mm
23:11 11.6 °C 6.9 °C 1018.2 hPa Calm     73 % 0 mm
23:16 11.6 °C 6.9 °C 1018.2 hPa Calm     73 % 0 mm
23:21 11.5 °C 6.6 °C 1017.8 hPa Calm     72 % 0 mm
23:26 11.4 °C 6.8 °C 1017.8 hPa Calm     73 % 0 mm
23:31 11.3 °C 7.3 °C 1018.2 hPa Calm     76 % 0 mm
23:36 11.2 °C 7.1 °C 1017.8 hPa Calm     76 % 0 mm
23:41 10.9 °C 7.1 °C 1017.8 hPa Calm     77 % 0 mm
23:46 10.7 °C 6.8 °C 1017.8 hPa Calm     77 % 0 mm
23:51 10.6 °C 6.9 °C 1017.8 hPa Calm     78 % 0 mm
23:56 10.3 °C 6.7 °C 1017.8 hPa Calm     78 % 0 mm
Park Place, Exeter, Tulare County, California, USA
Compliments of Weather Underground - 2.75 mb